sensor_id;sensor_type;location;lat;lon;timestamp;P1;durP1;ratioP1;P2;durP2;ratioP2
7338;SDS011;33747;49.524;8.390;2023-03-31T00:02:17;6.95;;;1.80;;
7338;SDS011;33747;49.524;8.390;2023-03-31T00:04:46;8.43;;;1.77;;
7338;SDS011;33747;49.524;8.390;2023-03-31T00:07:17;6.60;;;1.70;;
7338;SDS011;33747;49.524;8.390;2023-03-31T00:09:46;9.48;;;2.15;;
7338;SDS011;33747;49.524;8.390;2023-03-31T00:12:13;17.17;;;2.40;;
7338;SDS011;33747;49.524;8.390;2023-03-31T00:14:39;15.05;;;2.47;;
7338;SDS011;33747;49.524;8.390;2023-03-31T00:17:05;7.90;;;1.85;;
7338;SDS011;33747;49.524;8.390;2023-03-31T00:19:31;9.23;;;2.10;;
7338;SDS011;33747;49.524;8.390;2023-03-31T00:21:57;6.53;;;1.67;;
7338;SDS011;33747;49.524;8.390;2023-03-31T00:24:26;7.50;;;1.92;;
7338;SDS011;33747;49.524;8.390;2023-03-31T00:26:52;7.07;;;2.08;;
7338;SDS011;33747;49.524;8.390;2023-03-31T00:29:18;6.60;;;1.83;;
7338;SDS011;33747;49.524;8.390;2023-03-31T00:31:43;7.93;;;1.73;;
7338;SDS011;33747;49.524;8.390;2023-03-31T00:34:09;8.38;;;1.67;;
7338;SDS011;33747;49.524;8.390;2023-03-31T00:36:34;7.78;;;2.15;;
7338;SDS011;33747;49.524;8.390;2023-03-31T00:39:01;4.72;;;2.10;;
7338;SDS011;33747;49.524;8.390;2023-03-31T00:41:33;7.90;;;1.83;;
7338;SDS011;33747;49.524;8.390;2023-03-31T00:46:54;8.60;;;2.00;;
7338;SDS011;33747;49.524;8.390;2023-03-31T00:54:23;8.63;;;1.75;;
7338;SDS011;33747;49.524;8.390;2023-03-31T00:56:50;7.43;;;2.00;;
7338;SDS011;33747;49.524;8.390;2023-03-31T00:59:19;9.57;;;2.20;;
7338;SDS011;33747;49.524;8.390;2023-03-31T01:01:45;11.57;;;2.28;;
7338;SDS011;33747;49.524;8.390;2023-03-31T01:04:11;9.35;;;2.00;;
7338;SDS011;33747;49.524;8.390;2023-03-31T01:06:41;6.20;;;1.77;;
7338;SDS011;33747;49.524;8.390;2023-03-31T01:09:14;6.30;;;1.63;;
7338;SDS011;33747;49.524;8.390;2023-03-31T01:11:40;8.40;;;2.03;;
7338;SDS011;33747;49.524;8.390;2023-03-31T01:14:06;7.65;;;2.10;;
7338;SDS011;33747;49.524;8.390;2023-03-31T01:16:31;13.65;;;2.15;;
7338;SDS011;33747;49.524;8.390;2023-03-31T01:18:58;9.10;;;2.30;;
7338;SDS011;33747;49.524;8.390;2023-03-31T01:21:32;7.68;;;1.60;;
7338;SDS011;33747;49.524;8.390;2023-03-31T01:35:01;8.23;;;1.67;;
7338;SDS011;33747;49.524;8.390;2023-03-31T01:37:41;8.23;;;2.10;;
7338;SDS011;33747;49.524;8.390;2023-03-31T01:41:19;7.80;;;1.80;;
7338;SDS011;33747;49.524;8.390;2023-03-31T01:43:19;5.53;;;1.50;;
7338;SDS011;33747;49.524;8.390;2023-03-31T01:51:39;7.18;;;2.03;;
7338;SDS011;33747;49.524;8.390;2023-03-31T01:54:20;10.50;;;2.85;;
7338;SDS011;33747;49.524;8.390;2023-03-31T01:56:54;6.88;;;2.00;;
7338;SDS011;33747;49.524;8.390;2023-03-31T01:59:29;9.98;;;2.38;;
7338;SDS011;33747;49.524;8.390;2023-03-31T02:02:16;12.68;;;2.53;;
7338;SDS011;33747;49.524;8.390;2023-03-31T02:04:54;6.88;;;1.88;;
7338;SDS011;33747;49.524;8.390;2023-03-31T02:07:25;10.45;;;1.85;;
7338;SDS011;33747;49.524;8.390;2023-03-31T02:09:56;11.93;;;2.05;;
7338;SDS011;33747;49.524;8.390;2023-03-31T02:12:24;7.18;;;2.00;;
7338;SDS011;33747;49.524;8.390;2023-03-31T02:14:51;10.40;;;1.85;;
7338;SDS011;33747;49.524;8.390;2023-03-31T02:17:18;6.75;;;1.65;;
7338;SDS011;33747;49.524;8.390;2023-03-31T02:19:57;7.93;;;1.67;;
7338;SDS011;33747;49.524;8.390;2023-03-31T02:22:24;4.70;;;1.60;;
7338;SDS011;33747;49.524;8.390;2023-03-31T02:24:51;6.78;;;1.95;;
7338;SDS011;33747;49.524;8.390;2023-03-31T02:27:21;7.30;;;1.90;;
7338;SDS011;33747;49.524;8.390;2023-03-31T02:30:04;7.97;;;1.95;;
7338;SDS011;33747;49.524;8.390;2023-03-31T02:32:41;6.57;;;1.95;;
7338;SDS011;33747;49.524;8.390;2023-03-31T02:35:11;8.05;;;1.65;;
7338;SDS011;33747;49.524;8.390;2023-03-31T02:37:40;5.68;;;1.70;;
7338;SDS011;33747;49.524;8.390;2023-03-31T02:40:06;5.68;;;1.42;;
7338;SDS011;33747;49.524;8.390;2023-03-31T02:42:35;7.63;;;1.60;;
7338;SDS011;33747;49.524;8.390;2023-03-31T02:45:03;10.73;;;2.10;;
7338;SDS011;33747;49.524;8.390;2023-03-31T02:47:29;7.07;;;2.45;;
7338;SDS011;33747;49.524;8.390;2023-03-31T02:49:55;9.20;;;2.28;;
7338;SDS011;33747;49.524;8.390;2023-03-31T02:52:28;5.82;;;2.13;;
7338;SDS011;33747;49.524;8.390;2023-03-31T02:55:43;7.32;;;1.92;;
7338;SDS011;33747;49.524;8.390;2023-03-31T02:58:15;11.30;;;1.88;;
7338;SDS011;33747;49.524;8.390;2023-03-31T03:11:52;9.55;;;2.28;;
7338;SDS011;33747;49.524;8.390;2023-03-31T03:14:41;9.93;;;2.38;;
7338;SDS011;33747;49.524;8.390;2023-03-31T03:19:54;7.00;;;2.22;;
7338;SDS011;33747;49.524;8.390;2023-03-31T03:22:21;5.30;;;1.90;;
7338;SDS011;33747;49.524;8.390;2023-03-31T03:24:47;7.93;;;2.22;;
7338;SDS011;33747;49.524;8.390;2023-03-31T03:27:12;6.53;;;2.00;;
7338;SDS011;33747;49.524;8.390;2023-03-31T03:29:38;10.38;;;2.10;;
7338;SDS011;33747;49.524;8.390;2023-03-31T03:32:03;7.55;;;1.90;;
7338;SDS011;33747;49.524;8.390;2023-03-31T03:34:29;6.97;;;2.00;;
7338;SDS011;33747;49.524;8.390;2023-03-31T03:36:54;10.43;;;2.35;;
7338;SDS011;33747;49.524;8.390;2023-03-31T03:39:20;7.65;;;1.80;;
7338;SDS011;33747;49.524;8.390;2023-03-31T03:41:45;11.27;;;2.15;;
7338;SDS011;33747;49.524;8.390;2023-03-31T03:44:11;8.23;;;1.88;;
7338;SDS011;33747;49.524;8.390;2023-03-31T03:46:36;9.20;;;1.90;;
7338;SDS011;33747;49.524;8.390;2023-03-31T03:49:01;7.75;;;2.38;;
7338;SDS011;33747;49.524;8.390;2023-03-31T03:51:27;10.93;;;1.83;;
7338;SDS011;33747;49.524;8.390;2023-03-31T03:53:52;7.30;;;1.75;;
7338;SDS011;33747;49.524;8.390;2023-03-31T03:56:17;7.32;;;1.80;;
7338;SDS011;33747;49.524;8.390;2023-03-31T03:58:43;7.05;;;1.73;;
7338;SDS011;33747;49.524;8.390;2023-03-31T04:01:08;5.93;;;1.55;;
7338;SDS011;33747;49.524;8.390;2023-03-31T04:03:34;8.68;;;2.00;;
7338;SDS011;33747;49.524;8.390;2023-03-31T04:05:59;10.15;;;1.92;;
7338;SDS011;33747;49.524;8.390;2023-03-31T04:08:24;7.60;;;1.77;;
7338;SDS011;33747;49.524;8.390;2023-03-31T04:10:50;14.23;;;1.80;;
7338;SDS011;33747;49.524;8.390;2023-03-31T04:13:16;6.97;;;1.70;;
7338;SDS011;33747;49.524;8.390;2023-03-31T04:15:42;6.45;;;1.48;;
7338;SDS011;33747;49.524;8.390;2023-03-31T04:18:07;5.10;;;1.80;;
7338;SDS011;33747;49.524;8.390;2023-03-31T04:20:35;5.68;;;1.63;;
7338;SDS011;33747;49.524;8.390;2023-03-31T04:23:01;11.38;;;1.83;;
7338;SDS011;33747;49.524;8.390;2023-03-31T04:25:29;5.78;;;1.65;;
7338;SDS011;33747;49.524;8.390;2023-03-31T04:27:55;8.15;;;1.77;;
7338;SDS011;33747;49.524;8.390;2023-03-31T04:30:21;6.38;;;1.92;;
7338;SDS011;33747;49.524;8.390;2023-03-31T04:32:54;10.27;;;1.73;;
7338;SDS011;33747;49.524;8.390;2023-03-31T04:35:20;7.40;;;1.60;;
7338;SDS011;33747;49.524;8.390;2023-03-31T04:37:47;7.07;;;2.00;;
7338;SDS011;33747;49.524;8.390;2023-03-31T04:40:13;4.70;;;1.50;;
7338;SDS011;33747;49.524;8.390;2023-03-31T04:42:39;7.88;;;1.85;;
7338;SDS011;33747;49.524;8.390;2023-03-31T04:45:05;5.25;;;2.00;;
7338;SDS011;33747;49.524;8.390;2023-03-31T04:47:30;10.85;;;1.95;;
7338;SDS011;33747;49.524;8.390;2023-03-31T04:49:56;7.88;;;1.85;;
7338;SDS011;33747;49.524;8.390;2023-03-31T04:52:21;12.27;;;2.40;;
7338;SDS011;33747;49.524;8.390;2023-03-31T04:54:47;5.82;;;1.50;;
7338;SDS011;33747;49.524;8.390;2023-03-31T04:57:12;7.55;;;1.90;;
7338;SDS011;33747;49.524;8.390;2023-03-31T04:59:37;13.23;;;2.97;;
7338;SDS011;33747;49.524;8.390;2023-03-31T05:02:03;6.53;;;1.83;;
7338;SDS011;33747;49.524;8.390;2023-03-31T05:04:28;5.15;;;1.55;;
7338;SDS011;33747;49.524;8.390;2023-03-31T05:06:53;12.10;;;2.28;;
7338;SDS011;33747;49.524;8.390;2023-03-31T05:09:19;4.70;;;1.83;;
7338;SDS011;33747;49.524;8.390;2023-03-31T05:11:44;5.15;;;2.10;;
7338;SDS011;33747;49.524;8.390;2023-03-31T05:14:10;4.35;;;1.70;;
7338;SDS011;33747;49.524;8.390;2023-03-31T05:16:35;12.20;;;2.60;;
7338;SDS011;33747;49.524;8.390;2023-03-31T05:19:01;8.32;;;2.03;;
7338;SDS011;33747;49.524;8.390;2023-03-31T05:21:26;9.57;;;2.65;;
7338;SDS011;33747;49.524;8.390;2023-03-31T05:23:54;7.15;;;2.92;;
7338;SDS011;33747;49.524;8.390;2023-03-31T05:26:19;9.27;;;2.17;;
7338;SDS011;33747;49.524;8.390;2023-03-31T05:28:46;7.80;;;2.70;;
7338;SDS011;33747;49.524;8.390;2023-03-31T05:31:12;6.60;;;2.22;;
7338;SDS011;33747;49.524;8.390;2023-03-31T05:33:38;9.63;;;2.78;;
7338;SDS011;33747;49.524;8.390;2023-03-31T05:36:06;13.98;;;2.70;;
7338;SDS011;33747;49.524;8.390;2023-03-31T05:38:35;7.97;;;2.38;;
7338;SDS011;33747;49.524;8.390;2023-03-31T05:41:00;5.57;;;2.58;;
7338;SDS011;33747;49.524;8.390;2023-03-31T05:43:26;8.82;;;2.85;;
7338;SDS011;33747;49.524;8.390;2023-03-31T05:45:51;10.27;;;2.90;;
7338;SDS011;33747;49.524;8.390;2023-03-31T05:48:17;7.47;;;2.17;;
7338;SDS011;33747;49.524;8.390;2023-03-31T05:50:42;8.90;;;2.50;;
7338;SDS011;33747;49.524;8.390;2023-03-31T05:53:08;13.10;;;3.33;;
7338;SDS011;33747;49.524;8.390;2023-03-31T05:55:36;9.05;;;2.92;;
7338;SDS011;33747;49.524;8.390;2023-03-31T05:58:02;12.00;;;3.22;;
7338;SDS011;33747;49.524;8.390;2023-03-31T06:00:27;6.80;;;2.47;;
7338;SDS011;33747;49.524;8.390;2023-03-31T06:02:52;13.50;;;3.03;;
7338;SDS011;33747;49.524;8.390;2023-03-31T06:05:18;8.90;;;2.70;;
7338;SDS011;33747;49.524;8.390;2023-03-31T06:07:43;13.98;;;3.38;;
7338;SDS011;33747;49.524;8.390;2023-03-31T06:10:09;10.77;;;3.47;;
7338;SDS011;33747;49.524;8.390;2023-03-31T06:12:34;10.85;;;2.70;;
7338;SDS011;33747;49.524;8.390;2023-03-31T06:15:00;12.20;;;3.22;;
7338;SDS011;33747;49.524;8.390;2023-03-31T06:17:25;12.80;;;3.42;;
7338;SDS011;33747;49.524;8.390;2023-03-31T06:19:51;7.03;;;3.10;;
7338;SDS011;33747;49.524;8.390;2023-03-31T06:22:17;9.63;;;3.03;;
7338;SDS011;33747;49.524;8.390;2023-03-31T06:24:42;15.13;;;4.10;;
7338;SDS011;33747;49.524;8.390;2023-03-31T06:27:07;9.35;;;4.28;;
7338;SDS011;33747;49.524;8.390;2023-03-31T06:29:33;13.45;;;4.50;;
7338;SDS011;33747;49.524;8.390;2023-03-31T06:31:58;15.07;;;4.00;;
7338;SDS011;33747;49.524;8.390;2023-03-31T06:34:25;13.02;;;4.30;;
7338;SDS011;33747;49.524;8.390;2023-03-31T06:36:50;13.93;;;3.80;;
7338;SDS011;33747;49.524;8.390;2023-03-31T06:39:15;13.98;;;4.20;;
7338;SDS011;33747;49.524;8.390;2023-03-31T06:41:41;13.18;;;3.80;;
7338;SDS011;33747;49.524;8.390;2023-03-31T06:44:06;7.15;;;3.28;;
7338;SDS011;33747;49.524;8.390;2023-03-31T06:46:32;10.35;;;3.85;;
7338;SDS011;33747;49.524;8.390;2023-03-31T06:48:57;15.15;;;4.32;;
7338;SDS011;33747;49.524;8.390;2023-03-31T06:51:22;11.43;;;4.00;;
7338;SDS011;33747;49.524;8.390;2023-03-31T06:53:48;8.52;;;3.47;;
7338;SDS011;33747;49.524;8.390;2023-03-31T06:56:13;12.32;;;4.75;;
7338;SDS011;33747;49.524;8.390;2023-03-31T06:58:38;15.45;;;4.90;;
7338;SDS011;33747;49.524;8.390;2023-03-31T07:01:04;9.95;;;4.15;;
7338;SDS011;33747;49.524;8.390;2023-03-31T07:03:30;15.98;;;4.13;;
7338;SDS011;33747;49.524;8.390;2023-03-31T07:05:56;10.48;;;4.30;;
7338;SDS011;33747;49.524;8.390;2023-03-31T07:08:22;14.32;;;4.60;;
7338;SDS011;33747;49.524;8.390;2023-03-31T07:10:48;13.60;;;4.00;;
7338;SDS011;33747;49.524;8.390;2023-03-31T07:13:15;6.57;;;3.50;;
7338;SDS011;33747;49.524;8.390;2023-03-31T07:15:40;13.10;;;4.28;;
7338;SDS011;33747;49.524;8.390;2023-03-31T07:18:06;14.55;;;4.75;;
7338;SDS011;33747;49.524;8.390;2023-03-31T07:20:33;13.10;;;5.13;;
7338;SDS011;33747;49.524;8.390;2023-03-31T07:22:58;13.63;;;4.97;;
7338;SDS011;33747;49.524;8.390;2023-03-31T07:25:23;14.77;;;4.43;;
7338;SDS011;33747;49.524;8.390;2023-03-31T07:27:49;16.02;;;4.22;;
7338;SDS011;33747;49.524;8.390;2023-03-31T07:30:15;11.25;;;4.38;;
7338;SDS011;33747;49.524;8.390;2023-03-31T07:32:42;9.80;;;4.47;;
7338;SDS011;33747;49.524;8.390;2023-03-31T07:35:10;11.02;;;4.47;;
7338;SDS011;33747;49.524;8.390;2023-03-31T07:37:36;16.27;;;5.35;;
7338;SDS011;33747;49.524;8.390;2023-03-31T07:40:02;13.10;;;4.25;;
7338;SDS011;33747;49.524;8.390;2023-03-31T07:42:29;10.20;;;4.25;;
7338;SDS011;33747;49.524;8.390;2023-03-31T07:44:55;9.40;;;3.85;;
7338;SDS011;33747;49.524;8.390;2023-03-31T07:47:20;8.25;;;3.20;;
7338;SDS011;33747;49.524;8.390;2023-03-31T07:49:45;13.13;;;4.72;;
7338;SDS011;33747;49.524;8.390;2023-03-31T07:52:12;8.65;;;3.58;;
7338;SDS011;33747;49.524;8.390;2023-03-31T07:54:37;11.52;;;3.88;;
7338;SDS011;33747;49.524;8.390;2023-03-31T07:57:02;16.58;;;4.68;;
7338;SDS011;33747;49.524;8.390;2023-03-31T07:59:30;10.52;;;3.67;;
7338;SDS011;33747;49.524;8.390;2023-03-31T08:01:55;8.15;;;3.67;;
7338;SDS011;33747;49.524;8.390;2023-03-31T08:04:21;11.52;;;4.07;;
7338;SDS011;33747;49.524;8.390;2023-03-31T08:06:46;11.63;;;3.88;;
7338;SDS011;33747;49.524;8.390;2023-03-31T08:09:11;11.05;;;3.90;;
7338;SDS011;33747;49.524;8.390;2023-03-31T08:11:37;12.10;;;3.38;;
7338;SDS011;33747;49.524;8.390;2023-03-31T08:14:02;8.57;;;3.45;;
7338;SDS011;33747;49.524;8.390;2023-03-31T08:16:28;11.90;;;3.88;;
7338;SDS011;33747;49.524;8.390;2023-03-31T08:18:53;10.98;;;3.30;;
7338;SDS011;33747;49.524;8.390;2023-03-31T08:21:18;8.75;;;3.75;;
7338;SDS011;33747;49.524;8.390;2023-03-31T08:23:44;7.68;;;3.45;;
7338;SDS011;33747;49.524;8.390;2023-03-31T08:26:10;9.93;;;3.15;;
7338;SDS011;33747;49.524;8.390;2023-03-31T08:28:37;5.40;;;2.90;;
7338;SDS011;33747;49.524;8.390;2023-03-31T08:31:03;7.03;;;3.05;;
7338;SDS011;33747;49.524;8.390;2023-03-31T08:33:32;8.15;;;3.45;;
7338;SDS011;33747;49.524;8.390;2023-03-31T08:36:05;9.70;;;2.72;;
7338;SDS011;33747;49.524;8.390;2023-03-31T08:38:33;8.75;;;2.60;;
7338;SDS011;33747;49.524;8.390;2023-03-31T08:41:01;8.85;;;2.97;;
7338;SDS011;33747;49.524;8.390;2023-03-31T08:43:35;6.35;;;2.60;;
7338;SDS011;33747;49.524;8.390;2023-03-31T08:46:09;8.20;;;2.65;;
7338;SDS011;33747;49.524;8.390;2023-03-31T08:48:37;7.30;;;3.15;;
7338;SDS011;33747;49.524;8.390;2023-03-31T08:56:08;15.40;;;4.90;;
7338;SDS011;33747;49.524;8.390;2023-03-31T08:58:43;11.38;;;4.25;;
7338;SDS011;33747;49.524;8.390;2023-03-31T09:01:17;6.95;;;2.97;;
7338;SDS011;33747;49.524;8.390;2023-03-31T09:06:38;17.10;;;4.40;;
7338;SDS011;33747;49.524;8.390;2023-03-31T09:09:09;11.93;;;4.45;;
7338;SDS011;33747;49.524;8.390;2023-03-31T09:11:37;9.48;;;4.68;;
7338;SDS011;33747;49.524;8.390;2023-03-31T09:17:14;11.55;;;2.38;;
7338;SDS011;33747;49.524;8.390;2023-03-31T09:19:49;12.20;;;2.15;;
7338;SDS011;33747;49.524;8.390;2023-03-31T09:22:22;15.73;;;2.80;;
7338;SDS011;33747;49.524;8.390;2023-03-31T09:25:00;8.80;;;1.95;;
7338;SDS011;33747;49.524;8.390;2023-03-31T09:27:30;6.35;;;1.38;;
7338;SDS011;33747;49.524;8.390;2023-03-31T09:32:35;7.93;;;2.35;;
7338;SDS011;33747;49.524;8.390;2023-03-31T09:37:46;6.90;;;1.77;;
7338;SDS011;33747;49.524;8.390;2023-03-31T09:40:14;7.40;;;1.75;;
7338;SDS011;33747;49.524;8.390;2023-03-31T09:42:45;6.85;;;1.92;;
7338;SDS011;33747;49.524;8.390;2023-03-31T09:45:15;3.42;;;1.25;;
7338;SDS011;33747;49.524;8.390;2023-03-31T09:47:43;4.05;;;1.23;;
7338;SDS011;33747;49.524;8.390;2023-03-31T09:50:10;6.65;;;1.83;;
7338;SDS011;33747;49.524;8.390;2023-03-31T09:52:37;3.67;;;1.00;;
7338;SDS011;33747;49.524;8.390;2023-03-31T09:55:16;5.45;;;1.35;;
7338;SDS011;33747;49.524;8.390;2023-03-31T09:57:49;8.40;;;2.03;;
7338;SDS011;33747;49.524;8.390;2023-03-31T10:00:19;6.25;;;1.67;;
7338;SDS011;33747;49.524;8.390;2023-03-31T10:02:52;5.13;;;1.80;;
7338;SDS011;33747;49.524;8.390;2023-03-31T10:07:47;5.15;;;1.60;;
7338;SDS011;33747;49.524;8.390;2023-03-31T10:10:31;5.82;;;1.75;;
7338;SDS011;33747;49.524;8.390;2023-03-31T10:12:57;4.50;;;1.35;;
7338;SDS011;33747;49.524;8.390;2023-03-31T10:15:27;6.15;;;1.90;;
7338;SDS011;33747;49.524;8.390;2023-03-31T10:17:52;6.93;;;1.80;;
7338;SDS011;33747;49.524;8.390;2023-03-31T10:20:30;3.83;;;1.42;;
7338;SDS011;33747;49.524;8.390;2023-03-31T10:23:03;4.95;;;1.58;;
7338;SDS011;33747;49.524;8.390;2023-03-31T10:25:41;5.57;;;2.05;;
7338;SDS011;33747;49.524;8.390;2023-03-31T10:28:11;8.93;;;1.98;;
7338;SDS011;33747;49.524;8.390;2023-03-31T10:30:40;7.43;;;2.30;;
7338;SDS011;33747;49.524;8.390;2023-03-31T10:33:15;7.20;;;2.28;;
7338;SDS011;33747;49.524;8.390;2023-03-31T10:35:43;12.38;;;2.45;;
7338;SDS011;33747;49.524;8.390;2023-03-31T10:38:13;10.05;;;2.13;;
7338;SDS011;33747;49.524;8.390;2023-03-31T10:40:40;15.23;;;2.20;;
7338;SDS011;33747;49.524;8.390;2023-03-31T10:43:16;10.10;;;2.55;;
7338;SDS011;33747;49.524;8.390;2023-03-31T10:48:25;12.13;;;2.67;;
7338;SDS011;33747;49.524;8.390;2023-03-31T10:51:21;7.68;;;1.77;;
7338;SDS011;33747;49.524;8.390;2023-03-31T10:53:53;8.07;;;2.42;;
7338;SDS011;33747;49.524;8.390;2023-03-31T11:09:59;8.35;;;2.15;;
7338;SDS011;33747;49.524;8.390;2023-03-31T11:12:44;17.38;;;3.05;;
7338;SDS011;33747;49.524;8.390;2023-03-31T11:15:34;5.90;;;1.35;;
7338;SDS011;33747;49.524;8.390;2023-03-31T11:30:01;9.02;;;2.13;;
7338;SDS011;33747;49.524;8.390;2023-03-31T11:37:48;9.45;;;2.17;;
7338;SDS011;33747;49.524;8.390;2023-03-31T11:40:20;9.32;;;2.83;;
7338;SDS011;33747;49.524;8.390;2023-03-31T11:43:13;8.63;;;2.45;;
7338;SDS011;33747;49.524;8.390;2023-03-31T11:46:04;7.28;;;2.35;;
7338;SDS011;33747;49.524;8.390;2023-03-31T11:51:26;8.40;;;1.88;;
7338;SDS011;33747;49.524;8.390;2023-03-31T11:53:53;7.43;;;1.73;;
7338;SDS011;33747;49.524;8.390;2023-03-31T11:56:20;10.50;;;2.80;;
7338;SDS011;33747;49.524;8.390;2023-03-31T11:58:51;12.18;;;2.58;;
7338;SDS011;33747;49.524;8.390;2023-03-31T12:01:23;6.35;;;2.15;;
7338;SDS011;33747;49.524;8.390;2023-03-31T12:03:58;13.98;;;3.00;;
7338;SDS011;33747;49.524;8.390;2023-03-31T12:06:29;13.25;;;2.75;;
7338;SDS011;33747;49.524;8.390;2023-03-31T12:17:24;8.98;;;1.67;;
7338;SDS011;33747;49.524;8.390;2023-03-31T12:19:52;6.07;;;1.63;;
7338;SDS011;33747;49.524;8.390;2023-03-31T12:22:25;5.40;;;1.48;;
7338;SDS011;33747;49.524;8.390;2023-03-31T12:24:53;8.90;;;1.65;;
7338;SDS011;33747;49.524;8.390;2023-03-31T12:27:19;9.48;;;2.65;;
7338;SDS011;33747;49.524;8.390;2023-03-31T12:29:56;7.53;;;1.67;;
7338;SDS011;33747;49.524;8.390;2023-03-31T12:32:27;6.55;;;1.52;;
7338;SDS011;33747;49.524;8.390;2023-03-31T12:35:05;5.85;;;1.58;;
7338;SDS011;33747;49.524;8.390;2023-03-31T12:43:54;7.30;;;1.45;;
7338;SDS011;33747;49.524;8.390;2023-03-31T12:46:47;1.65;;;0.90;;
7338;SDS011;33747;49.524;8.390;2023-03-31T12:52:22;8.55;;;1.05;;
7338;SDS011;33747;49.524;8.390;2023-03-31T12:55:10;4.18;;;0.77;;
7338;SDS011;33747;49.524;8.390;2023-03-31T12:57:45;4.00;;;1.00;;
7338;SDS011;33747;49.524;8.390;2023-03-31T13:00:18;2.60;;;1.05;;
7338;SDS011;33747;49.524;8.390;2023-03-31T13:02:47;2.08;;;0.70;;
7338;SDS011;33747;49.524;8.390;2023-03-31T13:08:00;1.45;;;0.70;;
7338;SDS011;33747;49.524;8.390;2023-03-31T13:10:26;2.83;;;1.13;;
7338;SDS011;33747;49.524;8.390;2023-03-31T13:13:04;2.58;;;1.00;;
7338;SDS011;33747;49.524;8.390;2023-03-31T13:15:31;3.55;;;0.93;;
7338;SDS011;33747;49.524;8.390;2023-03-31T13:17:58;5.68;;;0.93;;
7338;SDS011;33747;49.524;8.390;2023-03-31T13:20:34;3.35;;;1.05;;
7338;SDS011;33747;49.524;8.390;2023-03-31T13:23:03;4.65;;;1.50;;
7338;SDS011;33747;49.524;8.390;2023-03-31T13:28:08;3.00;;;1.20;;
7338;SDS011;33747;49.524;8.390;2023-03-31T13:33:04;2.60;;;0.98;;
7338;SDS011;33747;49.524;8.390;2023-03-31T13:35:46;6.85;;;1.35;;
7338;SDS011;33747;49.524;8.390;2023-03-31T13:41:09;6.28;;;2.55;;
7338;SDS011;33747;49.524;8.390;2023-03-31T13:44:06;8.38;;;2.10;;
7338;SDS011;33747;49.524;8.390;2023-03-31T13:57:54;5.90;;;1.67;;
7338;SDS011;33747;49.524;8.390;2023-03-31T14:00:35;5.85;;;1.52;;
7338;SDS011;33747;49.524;8.390;2023-03-31T14:03:13;3.05;;;1.17;;
7338;SDS011;33747;49.524;8.390;2023-03-31T14:05:44;3.85;;;1.40;;
7338;SDS011;33747;49.524;8.390;2023-03-31T14:08:59;3.42;;;1.00;;
7338;SDS011;33747;49.524;8.390;2023-03-31T14:11:14;1.73;;;1.02;;
7338;SDS011;33747;49.524;8.390;2023-03-31T14:13:40;2.92;;;1.00;;
7338;SDS011;33747;49.524;8.390;2023-03-31T14:16:06;3.47;;;1.02;;
7338;SDS011;33747;49.524;8.390;2023-03-31T14:18:33;2.15;;;1.10;;
7338;SDS011;33747;49.524;8.390;2023-03-31T14:23:40;1.88;;;0.90;;
7338;SDS011;33747;49.524;8.390;2023-03-31T14:31:44;3.28;;;1.20;;
7338;SDS011;33747;49.524;8.390;2023-03-31T14:34:27;4.82;;;1.00;;
7338;SDS011;33747;49.524;8.390;2023-03-31T14:37:06;6.43;;;1.63;;
7338;SDS011;33747;49.524;8.390;2023-03-31T14:39:45;4.75;;;1.52;;
7338;SDS011;33747;49.524;8.390;2023-03-31T14:44:44;6.38;;;1.55;;
7338;SDS011;33747;49.524;8.390;2023-03-31T14:47:23;2.15;;;1.20;;
7338;SDS011;33747;49.524;8.390;2023-03-31T14:52:27;4.28;;;1.50;;
7338;SDS011;33747;49.524;8.390;2023-03-31T14:54:54;6.97;;;1.60;;
7338;SDS011;33747;49.524;8.390;2023-03-31T14:57:22;8.75;;;1.20;;
7338;SDS011;33747;49.524;8.390;2023-03-31T14:59:52;5.72;;;1.60;;
7338;SDS011;33747;49.524;8.390;2023-03-31T15:02:19;5.38;;;1.65;;
7338;SDS011;33747;49.524;8.390;2023-03-31T15:04:55;6.35;;;1.52;;
7338;SDS011;33747;49.524;8.390;2023-03-31T15:07:21;6.75;;;1.60;;
7338;SDS011;33747;49.524;8.390;2023-03-31T15:09:48;9.75;;;1.88;;
7338;SDS011;33747;49.524;8.390;2023-03-31T15:12:15;5.53;;;1.80;;
7338;SDS011;33747;49.524;8.390;2023-03-31T15:14:46;6.45;;;1.70;;
7338;SDS011;33747;49.524;8.390;2023-03-31T15:17:20;5.75;;;1.67;;
7338;SDS011;33747;49.524;8.390;2023-03-31T15:19:58;12.60;;;1.83;;
7338;SDS011;33747;49.524;8.390;2023-03-31T15:22:25;7.15;;;2.25;;
7338;SDS011;33747;49.524;8.390;2023-03-31T15:24:52;7.60;;;1.70;;
7338;SDS011;33747;49.524;8.390;2023-03-31T15:27:37;6.22;;;1.38;;
7338;SDS011;33747;49.524;8.390;2023-03-31T15:30:07;8.27;;;1.42;;
7338;SDS011;33747;49.524;8.390;2023-03-31T15:32:44;5.80;;;1.80;;
7338;SDS011;33747;49.524;8.390;2023-03-31T15:35:20;6.65;;;1.58;;
7338;SDS011;33747;49.524;8.390;2023-03-31T15:37:45;8.77;;;1.95;;
7338;SDS011;33747;49.524;8.390;2023-03-31T15:40:16;9.82;;;2.30;;
7338;SDS011;33747;49.524;8.390;2023-03-31T15:42:44;8.68;;;1.67;;
7338;SDS011;33747;49.524;8.390;2023-03-31T15:47:57;6.88;;;1.48;;
7338;SDS011;33747;49.524;8.390;2023-03-31T15:50:25;4.47;;;1.17;;
7338;SDS011;33747;49.524;8.390;2023-03-31T15:52:53;5.65;;;1.67;;
7338;SDS011;33747;49.524;8.390;2023-03-31T15:57:49;4.93;;;1.17;;
7338;SDS011;33747;49.524;8.390;2023-03-31T16:02:58;4.38;;;1.63;;
7338;SDS011;33747;49.524;8.390;2023-03-31T16:05:40;3.75;;;1.30;;
7338;SDS011;33747;49.524;8.390;2023-03-31T16:08:45;3.13;;;1.23;;
7338;SDS011;33747;49.524;8.390;2023-03-31T16:11:14;6.47;;;1.45;;
7338;SDS011;33747;49.524;8.390;2023-03-31T16:13:46;5.50;;;1.20;;
7338;SDS011;33747;49.524;8.390;2023-03-31T16:16:15;8.90;;;1.70;;
7338;SDS011;33747;49.524;8.390;2023-03-31T16:18:44;3.88;;;1.33;;
7338;SDS011;33747;49.524;8.390;2023-03-31T16:21:13;5.10;;;1.33;;
7338;SDS011;33747;49.524;8.390;2023-03-31T16:23:48;3.53;;;1.20;;
7338;SDS011;33747;49.524;8.390;2023-03-31T16:26:23;3.95;;;1.50;;
7338;SDS011;33747;49.524;8.390;2023-03-31T16:28:50;4.85;;;1.45;;
7338;SDS011;33747;49.524;8.390;2023-03-31T16:31:31;3.78;;;1.40;;
7338;SDS011;33747;49.524;8.390;2023-03-31T16:33:58;8.68;;;1.80;;
7338;SDS011;33747;49.524;8.390;2023-03-31T16:36:24;5.78;;;1.67;;
7338;SDS011;33747;49.524;8.390;2023-03-31T16:38:51;4.70;;;1.48;;
7338;SDS011;33747;49.524;8.390;2023-03-31T16:41:18;8.70;;;2.92;;
7338;SDS011;33747;49.524;8.390;2023-03-31T16:43:43;4.95;;;1.73;;
7338;SDS011;33747;49.524;8.390;2023-03-31T16:46:09;6.68;;;1.45;;
7338;SDS011;33747;49.524;8.390;2023-03-31T16:48:34;3.75;;;1.88;;
7338;SDS011;33747;49.524;8.390;2023-03-31T16:51:00;5.95;;;1.83;;
7338;SDS011;33747;49.524;8.390;2023-03-31T16:53:27;6.13;;;1.52;;
7338;SDS011;33747;49.524;8.390;2023-03-31T16:55:57;8.48;;;1.80;;
7338;SDS011;33747;49.524;8.390;2023-03-31T16:58:23;10.23;;;2.20;;
7338;SDS011;33747;49.524;8.390;2023-03-31T17:00:50;5.30;;;1.58;;
7338;SDS011;33747;49.524;8.390;2023-03-31T17:03:15;7.78;;;1.58;;
7338;SDS011;33747;49.524;8.390;2023-03-31T17:05:42;5.22;;;1.50;;
7338;SDS011;33747;49.524;8.390;2023-03-31T17:08:09;4.97;;;1.63;;
7338;SDS011;33747;49.524;8.390;2023-03-31T17:10:36;3.00;;;1.33;;
7338;SDS011;33747;49.524;8.390;2023-03-31T17:13:02;4.63;;;1.17;;
7338;SDS011;33747;49.524;8.390;2023-03-31T17:15:27;4.40;;;1.50;;
7338;SDS011;33747;49.524;8.390;2023-03-31T17:17:53;4.40;;;1.48;;
7338;SDS011;33747;49.524;8.390;2023-03-31T17:20:19;4.68;;;1.17;;
7338;SDS011;33747;49.524;8.390;2023-03-31T17:22:45;3.38;;;2.15;;
7338;SDS011;33747;49.524;8.390;2023-03-31T17:25:10;7.03;;;1.58;;
7338;SDS011;33747;49.524;8.390;2023-03-31T17:27:36;5.07;;;2.20;;
7338;SDS011;33747;49.524;8.390;2023-03-31T17:30:02;7.93;;;2.17;;
7338;SDS011;33747;49.524;8.390;2023-03-31T17:32:29;7.22;;;1.55;;
7338;SDS011;33747;49.524;8.390;2023-03-31T17:34:55;8.23;;;1.58;;
7338;SDS011;33747;49.524;8.390;2023-03-31T17:37:20;5.35;;;1.48;;
7338;SDS011;33747;49.524;8.390;2023-03-31T17:39:46;4.18;;;1.40;;
7338;SDS011;33747;49.524;8.390;2023-03-31T17:42:11;15.90;;;6.90;;
7338;SDS011;33747;49.524;8.390;2023-03-31T17:44:37;9.73;;;2.55;;
7338;SDS011;33747;49.524;8.390;2023-03-31T17:47:03;4.78;;;1.30;;